| time (UTC) | temp C | wind direction | speed KPH | gust KPH | rain 1hr cm | rain 24hr cm | rain mn cm | humidity % | barometer mb |
| 20260831054603 | 22 | 93 | 11.3 | 19.3 | 0.00 | 0.00 | 0.00 | 54 | 1028.5 |
| 20260831054103 | 22 | 77 | 9.7 | 14.5 | 0.00 | 0.00 | 0.00 | 53 | 1028.5 |
| 20260831053604 | 23 | 83 | 8.0 | 20.9 | 0.00 | 0.00 | 0.00 | 53 | 1028.7 |
| 20260831053105 | 23 | 72 | 6.4 | 19.3 | 0.00 | 0.00 | 0.00 | 53 | 1028.7 |
| 20260831052603 | 23 | 84 | 6.4 | 19.3 | 0.00 | 0.00 | 0.00 | 53 | 1028.8 |
| 20260831052104 | 23 | 66 | 4.8 | 16.1 | 0.00 | 0.00 | 0.00 | 52 | 1028.8 |
| 20260831051603 | 23 | 105 | 8.0 | 19.3 | 0.00 | 0.00 | 0.00 | 52 | 1028.7 |
| 20260831051103 | 23 | 82 | 9.7 | 19.3 | 0.00 | 0.00 | 0.00 | 52 | 1028.7 |
| 20260831050603 | 23 | 80 | 8.0 | 16.1 | 0.00 | 0.00 | 0.00 | 53 | 1028.7 |
| 20260831050103 | 23 | 80 | 8.0 | 16.1 | 0.00 | 0.00 | 0.00 | 53 | 1028.8 |
| 20260831045604 | 23 | 66 | 9.7 | 16.1 | 0.00 | 0.00 | 0.00 | 52 | 1028.8 |
| 20260831045103 | 23 | 80 | 8.0 | 14.5 | 0.00 | 0.00 | 0.00 | 52 | 1028.7 |
| 20260831044603 | 23 | 69 | 3.2 | 19.3 | 0.00 | 0.00 | 0.00 | 52 | 1028.8 |
| 20260831044104 | 23 | 65 | 3.2 | 16.1 | 0.00 | 0.00 | 0.00 | 52 | 1028.9 |
| 20260831043603 | 23 | 86 | 9.7 | 19.3 | 0.00 | 0.00 | 0.00 | 51 | 1029.0 |
| 20260831043104 | 23 | 86 | 4.8 | 16.1 | 0.00 | 0.00 | 0.00 | 49 | 1029.0 |
| 20260831042603 | 23 | 68 | 8.0 | 16.1 | 0.00 | 0.00 | 0.00 | 48 | 1029.1 |
| 20260831042103 | 23 | 42 | 9.7 | 14.5 | 0.00 | 0.00 | 0.00 | 46 | 1029.1 |
| 20260831041603 | 23 | 78 | 3.2 | 11.3 | 0.00 | 0.00 | 0.00 | 46 | 1029.1 |
| 20260831041104 | 23 | 47 | 6.4 | 16.1 | 0.00 | 0.00 | 0.00 | 47 | 1029.1 |
| 20260831040604 | 23 | 71 | 6.4 | 12.9 | 0.00 | 0.00 | 0.00 | 47 | 1029.1 |
| 20260831040104 | 23 | 93 | 8.0 | 19.3 | 0.00 | 0.00 | 0.00 | 48 | 1029.1 |
| 20260831035604 | 23 | 50 | 8.0 | 12.9 | 0.00 | 0.00 | 0.00 | 48 | 1029.2 |
| 20260831035104 | 23 | 69 | 4.8 | 12.9 | 0.00 | 0.00 | 0.00 | 49 | 1029.2 |
| 20260831034603 | 23 | 107 | 3.2 | 14.5 | 0.00 | 0.00 | 0.00 | 48 | 1029.1 |
| 20260831034103 | 23 | 99 | 8.0 | 12.9 | 0.00 | 0.00 | 0.00 | 49 | 1029.3 |
| 20260831033604 | 22 | 23 | 4.8 | 12.9 | 0.00 | 0.00 | 0.00 | 50 | 1029.3 |
| 20260831033104 | 22 | 55 | 9.7 | 19.3 | 0.00 | 0.00 | 0.00 | 49 | 1029.4 |
| 20260831032603 | 22 | 49 | 8.0 | 14.5 | 0.00 | 0.00 | 0.00 | 49 | 1029.4 |
| 20260831032103 | 22 | 100 | 8.0 | 14.5 | 0.00 | 0.00 | 0.00 | 50 | 1029.5 |
| 20260831031603 | 22 | 156 | 1.6 | 12.9 | 0.00 | 0.00 | 0.00 | 50 | 1029.5 |
| 20260831031103 | 22 | 79 | 6.4 | 16.1 | 0.00 | 0.00 | 0.00 | 50 | 1029.6 |
| 20260831030604 | 22 | 43 | 8.0 | 14.5 | 0.00 | 0.00 | 0.00 | 50 | 1029.6 |
| 20260831030104 | 22 | 77 | 4.8 | 11.3 | 0.00 | 0.00 | 0.00 | 50 | 1029.6 |
| 20260831025603 | 22 | 94 | 6.4 | 11.3 | 0.00 | 0.00 | 0.00 | 51 | 1029.7 |
| 20260831025103 | 22 | 80 | 0.0 | 4.8 | 0.00 | 0.00 | 0.00 | 51 | 1029.9 |
| 20260831024604 | 22 | 71 | 3.2 | 11.3 | 0.00 | 0.00 | 0.00 | 52 | 1030.1 |
| 20260831024103 | 22 | 84 | 4.8 | 9.7 | 0.00 | 0.00 | 0.00 | 51 | 1030.1 |
| 20260831023603 | 22 | 85 | 4.8 | 8.0 | 0.00 | 0.00 | 0.00 | 51 | 1030.1 |
| 20260831023104 | 22 | 91 | 3.2 | 11.3 | 0.00 | 0.00 | 0.00 | 51 | 1030.2 |
| 20260831022604 | 22 | 84 | 3.2 | 9.7 | 0.00 | 0.00 | 0.00 | 52 | 1030.3 |
| 20260831022103 | 22 | 33 | 6.4 | 11.3 | 0.00 | 0.00 | 0.00 | 52 | 1030.3 |
| 20260831021604 | 21 | 94 | 1.6 | 9.7 | 0.00 | 0.00 | 0.00 | 52 | 1030.5 |
| 20260831021103 | 21 | 76 | 4.8 | 11.3 | 0.00 | 0.00 | 0.00 | 51 | 1030.5 |
| 20260831020603 | 21 | 71 | 1.6 | 4.8 | 0.00 | 0.00 | 0.00 | 53 | 1030.5 |
| 20260831020103 | 21 | 16 | 3.2 | 8.0 | 0.00 | 0.00 | 0.00 | 51 | 1030.7 |
| 20260831015604 | 21 | 6 | 3.2 | 8.0 | 0.00 | 0.00 | 0.00 | 52 | 1030.8 |
| 20260831014604 | 21 | 9 | 3.2 | 9.7 | 0.00 | 0.00 | 0.00 | 55 | 1030.8 |
| 20260831014103 | 20 | 22 | 3.2 | 8.0 | 0.00 | 0.00 | 0.00 | 56 | 1031.0 |
| 20260831013603 | 20 | 23 | 8.0 | 11.3 | 0.00 | 0.00 | 0.00 | 57 | 1031.1 |
| 20260831013103 | 20 | 37 | 6.4 | 9.7 | 0.00 | 0.00 | 0.00 | 57 | 1031.2 |
| 20260831012603 | 20 | 42 | 1.6 | 4.8 | 0.00 | 0.00 | 0.00 | 56 | 1031.3 |
| 20260831012103 | 20 | 58 | 3.2 | 4.8 | 0.00 | 0.00 | 0.00 | 58 | 1031.4 |
| 20260831011603 | 21 | 277 | 0.0 | 4.8 | 0.00 | 0.00 | 0.00 | 55 | 1031.4 |
| 20260831011103 | 19 | 348 | 1.6 | 4.8 | 0.00 | 0.00 | 0.00 | 59 | 1031.5 |
| 20260831010604 | 19 | 48 | 1.6 | 8.0 | 0.00 | 0.00 | 0.00 | 60 | 1031.6 |
| 20260831010105 | 19 | 46 | 3.2 | 9.7 | 0.00 | 0.00 | 0.00 | 58 | 1031.8 |
| 20260831005603 | 20 | 41 | 0.0 | 4.8 | 0.00 | 0.00 | 0.00 | 59 | 1031.7 |
| 20260831005104 | 20 | 321 | 1.6 | 4.8 | 0.00 | 0.00 | 0.00 | 61 | 1031.8 |
| 20260831004604 | 18 | 26 | 1.6 | 4.8 | 0.00 | 0.00 | 0.00 | 63 | 1031.9 |
| 20260831004106 | 18 | 24 | 1.6 | 8.0 | 0.00 | 0.00 | 0.00 | 63 | 1032.0 |
| 20260831003104 | 18 | 355 | 1.6 | 8.0 | 0.00 | 0.00 | 0.00 | 64 | 1032.2 |
| 20260831002604 | 18 | 24 | 1.6 | 4.8 | 0.00 | 0.00 | 0.00 | 64 | 1032.2 |
| 20260831002104 | 18 | 330 | 3.2 | 4.8 | 0.00 | 0.00 | 0.00 | 65 | 1032.2 |
| 20260831001104 | 17 | 157 | 3.2 | 4.8 | 0.00 | 0.00 | 0.00 | 68 | 1032.1 |
| 20260831000604 | 16 | 141 | 0.0 | 1.6 | 0.00 | 0.00 | 0.00 | 69 | 1032.2 |
| 20260831000104 | 17 | 15 | 0.0 | 3.2 | 0.00 | 0.00 | 0.00 | 68 | 1032.1 |
| 20260830235604 | 16 | 352 | 1.6 | 4.8 | 0.00 | 0.00 | 0.00 | 70 | 1032.1 |
| 20260830235104 | 16 | 339 | 1.6 | 4.8 | 0.00 | 0.00 | 0.00 | 67 | 1032.2 |
| 20260830234604 | 16 | 301 | 1.6 | 3.2 | 0.00 | 0.00 | 0.00 | 68 | 1032.2 |
| 20260830233605 | 16 | 316 | 1.6 | 4.8 | 0.00 | 0.00 | 0.00 | 69 | 1032.2 |
| 20260830233104 | 16 | 308 | 1.6 | 4.8 | 0.00 | 0.00 | 0.00 | 67 | 1032.3 |
| 20260830232604 | 16 | 337 | 1.6 | 4.8 | 0.00 | 0.00 | 0.00 | 68 | 1032.3 |
| 20260830232105 | 16 | 324 | 4.8 | 4.8 | 0.00 | 0.00 | 0.00 | 68 | 1032.3 |
| 20260830231604 | 16 | 315 | 3.2 | 4.8 | 0.00 | 0.00 | 0.00 | 68 | 1032.3 |
| 20260830231105 | 15 | 303 | 3.2 | 4.8 | 0.00 | 0.00 | 0.00 | 69 | 1032.3 |
| 20260830230604 | 15 | 326 | 1.6 | 4.8 | 0.00 | 0.00 | 0.00 | 70 | 1032.3 |
| 20260830230105 | 15 | 336 | 3.2 | 8.0 | 0.00 | 0.00 | 0.00 | 71 | 1032.3 |
| 20260830225105 | 14 | 339 | 3.2 | 4.8 | 0.00 | 0.00 | 0.00 | 72 | 1032.1 |
| 20260830224604 | 13 | 8 | 1.6 | 4.8 | 0.00 | 0.00 | 0.00 | 74 | 1032.1 |
| 20260830224105 | 13 | 15 | 3.2 | 4.8 | 0.00 | 0.00 | 0.00 | 72 | 1032.1 |
| 20260830223104 | 13 | 350 | 1.6 | 4.8 | 0.00 | 0.00 | 0.00 | 73 | 1032.0 |
| 20260830222605 | 13 | 295 | 0.0 | 4.8 | 0.00 | 0.00 | 0.00 | 74 | 1032.0 |
| 20260830222104 | 13 | 307 | 0.0 | 4.8 | 0.00 | 0.00 | 0.00 | 75 | 1032.1 |
| 20260830221604 | 12 | 307 | 0.0 | 4.8 | 0.00 | 0.00 | 0.00 | 76 | 1032.1 |
| 20260830221104 | 12 | 300 | 3.2 | 4.8 | 0.00 | 0.00 | 0.00 | 76 | 1032.0 |
| 20260830220603 | 12 | 255 | 0.0 | 0.0 | 0.00 | 0.00 | 0.00 | 77 | 1032.0 |
| 20260830220105 | 12 | 255 | 0.0 | 0.0 | 0.00 | 0.00 | 0.00 | 79 | 1032.0 |
| 20260830215604 | 11 | 255 | 0.0 | 0.0 | 0.00 | 0.00 | 0.00 | 80 | 1032.0 |
| 20260830215105 | 11 | 255 | 0.0 | 3.2 | 0.00 | 0.00 | 0.00 | 81 | 1032.0 |
| 20260830214605 | 11 | 255 | 0.0 | 3.2 | 0.00 | 0.00 | 0.00 | 82 | 1031.9 |
| 20260830214104 | 11 | 255 | 0.0 | 1.6 | 0.00 | 0.00 | 0.00 | 83 | 1031.8 |
| 20260830213604 | 11 | 255 | 0.0 | 1.6 | 0.00 | 0.00 | 0.00 | 85 | 1031.9 |
| 20260830213105 | 11 | 255 | 0.0 | 3.2 | 0.00 | 0.00 | 0.00 | 86 | 1031.9 |
| 20260830212605 | 10 | 255 | 0.0 | 0.0 | 0.00 | 0.00 | 0.00 | 87 | 1031.9 |
| 20260830212104 | 10 | 255 | 0.0 | 0.0 | 0.00 | 0.00 | 0.00 | 88 | 1032.0 |
| 20260830211604 | 10 | 255 | 0.0 | 0.0 | 0.00 | 0.00 | 0.00 | 89 | 1031.9 |
| 20260830211103 | 9 | 255 | 0.0 | 0.0 | 0.00 | 0.00 | 0.00 | 90 | 1031.8 |
| 20260830210604 | 9 | 255 | 0.0 | 0.0 | 0.00 | 0.00 | 0.00 | 90 | 1031.8 |
| 20260830210104 | 8 | 255 | 0.0 | 0.0 | 0.00 | 0.00 | 0.00 | 90 | 1031.8 |
| 20260830205603 | 8 | 255 | 0.0 | 0.0 | 0.00 | 0.00 | 0.00 | 90 | 1031.7 |
| 20260830205103 | 8 | 255 | 0.0 | 0.0 | 0.00 | 0.00 | 0.00 | 90 | 1031.6 |
| 20260830204603 | 8 | 255 | 0.0 | 0.0 | 0.00 | 0.00 | 0.00 | 90 | 1031.5 |
| 20260830204103 | 8 | 255 | 0.0 | 0.0 | 0.00 | 0.00 | 0.00 | 90 | 1031.3 |
| 20260830203603 | 8 | 255 | 0.0 | 0.0 | 0.00 | 0.00 | 0.00 | 90 | 1031.4 |
| 20260830202603 | 8 | 255 | 1.6 | 3.2 | 0.00 | 0.00 | 0.00 | 90 | 1031.2 |
| 20260830202103 | 8 | 255 | 0.0 | 1.6 | 0.00 | 0.00 | 0.00 | 90 | 1031.1 |
| 20260830201603 | 8 | 255 | 1.6 | 3.2 | 0.00 | 0.00 | 0.00 | 90 | 1031.0 |
| 20260830201104 | 8 | 255 | 1.6 | 3.2 | 0.00 | 0.00 | 0.00 | 90 | 1031.1 |
| 20260830200604 | 7 | 255 | 1.6 | 4.8 | 0.00 | 0.00 | 0.00 | 89 | 1031.1 |
| 20260830200104 | 7 | 255 | 3.2 | 4.8 | 0.00 | 0.00 | 0.00 | 89 | 1031.1 |
| 20260830195604 | 8 | 255 | 0.0 | 0.0 | 0.00 | 0.00 | 0.00 | 89 | 1031.0 |
| 20260830195103 | 8 | 255 | 0.0 | 0.0 | 0.00 | 0.00 | 0.00 | 89 | 1031.0 |
| 20260830194603 | 8 | 255 | 0.0 | 3.2 | 0.00 | 0.00 | 0.00 | 89 | 1031.0 |
| 20260830193603 | 8 | 255 | 0.0 | 0.0 | 0.00 | 0.00 | 0.00 | 89 | 1030.9 |
| 20260830193103 | 8 | 255 | 0.0 | 0.0 | 0.00 | 0.00 | 0.00 | 89 | 1030.8 |
| 20260830192603 | 8 | 255 | 0.0 | 0.0 | 0.00 | 0.00 | 0.00 | 89 | 1030.9 |
| 20260830192103 | 8 | 255 | 0.0 | 3.2 | 0.00 | 0.00 | 0.00 | 89 | 1030.9 |
| 20260830191603 | 8 | 255 | 1.6 | 4.8 | 0.00 | 0.00 | 0.00 | 89 | 1030.8 |
| 20260830191104 | 8 | 255 | 0.0 | 1.6 | 0.00 | 0.00 | 0.00 | 89 | 1030.7 |
| 20260830190604 | 8 | 255 | 0.0 | 1.6 | 0.00 | 0.00 | 0.00 | 89 | 1030.7 |
| 20260830190103 | 8 | 255 | 0.0 | 4.8 | 0.00 | 0.00 | 0.00 | 89 | 1030.7 |
| 20260830185603 | 8 | 255 | 0.0 | 1.6 | 0.00 | 0.00 | 0.00 | 89 | 1030.7 |
| 20260830185104 | 8 | 255 | 0.0 | 0.0 | 0.00 | 0.00 | 0.00 | 89 | 1030.8 |
| 20260830184603 | 8 | 255 | 0.0 | 1.6 | 0.00 | 0.00 | 0.00 | 89 | 1030.7 |
| 20260830184103 | 8 | 255 | 0.0 | 1.6 | 0.00 | 0.00 | 0.00 | 89 | 1030.7 |
| 20260830183603 | 8 | 255 | 1.6 | 3.2 | 0.00 | 0.00 | 0.00 | 88 | 1030.8 |
| 20260830183103 | 8 | 255 | 0.0 | 3.2 | 0.00 | 0.00 | 0.00 | 88 | 1030.8 |
| 20260830182103 | 8 | 255 | 0.0 | 0.0 | 0.00 | 0.00 | 0.00 | 88 | 1030.8 |
| 20260830181603 | 8 | 255 | 0.0 | 1.6 | 0.00 | 0.00 | 0.00 | 88 | 1030.8 |
| 20260830181103 | 8 | 255 | 0.0 | 0.0 | 0.00 | 0.00 | 0.00 | 88 | 1030.8 |
| 20260830180604 | 8 | 255 | 0.0 | 0.0 | 0.00 | 0.00 | 0.00 | 88 | 1030.9 |
| 20260830175104 | 8 | 255 | 0.0 | 0.0 | 0.00 | 0.00 | 0.00 | 88 | 1030.9 |
| 20260830173604 | 8 | 255 | 0.0 | 0.0 | 0.00 | 0.00 | 0.00 | 87 | 1031.1 |
| 20260830173103 | 8 | 255 | 1.6 | 4.8 | 0.00 | 0.00 | 0.00 | 87 | 1031.0 |
| 20260830172603 | 8 | 255 | 3.2 | 4.8 | 0.00 | 0.00 | 0.00 | 87 | 1031.2 |
| 20260830172103 | 8 | 255 | 0.0 | 1.6 | 0.00 | 0.00 | 0.00 | 87 | 1031.1 |
| 20260830171604 | 8 | 255 | 0.0 | 3.2 | 0.00 | 0.00 | 0.00 | 87 | 1031.1 |
| 20260830171104 | 8 | 255 | 1.6 | 4.8 | 0.00 | 0.00 | 0.00 | 88 | 1031.1 |
| 20260830170604 | 8 | 255 | 0.0 | 3.2 | 0.00 | 0.00 | 0.00 | 87 | 1031.1 |
| 20260830170104 | 8 | 255 | 0.0 | 1.6 | 0.00 | 0.00 | 0.00 | 87 | 1031.0 |
| 20260830165604 | 8 | 255 | 1.6 | 4.8 | 0.00 | 0.00 | 0.00 | 87 | 1031.1 |
| 20260830165103 | 8 | 255 | 0.0 | 4.8 | 0.00 | 0.00 | 0.00 | 87 | 1031.1 |
| 20260830164604 | 8 | 255 | 0.0 | 1.6 | 0.00 | 0.00 | 0.00 | 87 | 1031.0 |
| 20260830163604 | 8 | 261 | 4.8 | 8.0 | 0.00 | 0.00 | 0.00 | 88 | 1031.3 |
| 20260830163104 | 8 | 262 | 6.4 | 9.7 | 0.00 | 0.00 | 0.00 | 88 | 1031.4 |
| 20260830162604 | 8 | 249 | 4.8 | 8.0 | 0.00 | 0.00 | 0.00 | 88 | 1031.4 |
| 20260830162103 | 8 | 248 | 4.8 | 9.7 | 0.00 | 0.00 | 0.00 | 88 | 1031.4 |
| 20260830161605 | 8 | 257 | 3.2 | 4.8 | 0.00 | 0.00 | 0.00 | 88 | 1031.3 |
| 20260830161104 | 8 | 257 | 3.2 | 8.0 | 0.00 | 0.00 | 0.00 | 88 | 1031.3 |
| 20260830160104 | 8 | 260 | 1.6 | 3.2 | 0.00 | 0.00 | 0.00 | 88 | 1031.4 |
| 20260830155604 | 8 | 260 | 1.6 | 3.2 | 0.00 | 0.00 | 0.00 | 87 | 1031.4 |
| 20260830155104 | 8 | 260 | 1.6 | 4.8 | 0.00 | 0.00 | 0.00 | 87 | 1031.4 |
| 20260830154603 | 8 | 249 | 4.8 | 8.0 | 0.00 | 0.00 | 0.00 | 87 | 1031.5 |
| 20260830154104 | 8 | 241 | 3.2 | 4.8 | 0.00 | 0.00 | 0.00 | 87 | 1031.5 |
| 20260830153604 | 8 | 241 | 1.6 | 3.2 | 0.00 | 0.00 | 0.00 | 87 | 1031.5 |
| 20260830153104 | 9 | 241 | 1.6 | 4.8 | 0.00 | 0.00 | 0.00 | 87 | 1031.5 |
| 20260830152604 | 9 | 241 | 4.8 | 4.8 | 0.00 | 0.00 | 0.00 | 87 | 1031.5 |
| 20260830152104 | 9 | 240 | 3.2 | 4.8 | 0.00 | 0.00 | 0.00 | 87 | 1031.4 |
| 20260830151604 | 9 | 240 | 3.2 | 4.8 | 0.00 | 0.00 | 0.00 | 86 | 1031.4 |
| 20260830151104 | 9 | 240 | 3.2 | 4.8 | 0.00 | 0.00 | 0.00 | 86 | 1031.4 |
| 20260830150604 | 10 | 240 | 3.2 | 4.8 | 0.00 | 0.00 | 0.00 | 86 | 1031.5 |
| 20260830150105 | 10 | 240 | 3.2 | 4.8 | 0.00 | 0.00 | 0.00 | 86 | 1031.5 |
| 20260830145604 | 10 | 240 | 3.2 | 4.8 | 0.00 | 0.00 | 0.00 | 86 | 1031.4 |
| 20260830145105 | 10 | 240 | 4.8 | 4.8 | 0.00 | 0.00 | 0.00 | 87 | 1031.5 |
| 20260830144104 | 10 | 257 | 3.2 | 4.8 | 0.00 | 0.00 | 0.00 | 87 | 1031.5 |
| 20260830143604 | 10 | 257 | 0.0 | 1.6 | 0.00 | 0.00 | 0.00 | 87 | 1031.5 |
| 20260830143104 | 10 | 257 | 0.0 | 0.0 | 0.00 | 0.00 | 0.00 | 87 | 1031.5 |
| 20260830142104 | 10 | 257 | 0.0 | 0.0 | 0.00 | 0.00 | 0.00 | 87 | 1031.5 |
| 20260830141604 | 10 | 257 | 0.0 | 0.0 | 0.00 | 0.00 | 0.00 | 86 | 1031.6 |
| 20260830141104 | 10 | 257 | 0.0 | 0.0 | 0.00 | 0.00 | 0.00 | 87 | 1031.5 |
| 20260830140604 | 10 | 257 | 0.0 | 0.0 | 0.00 | 0.00 | 0.00 | 86 | 1031.5 |
| 20260830140104 | 10 | 257 | 0.0 | 0.0 | 0.00 | 0.00 | 0.00 | 86 | 1031.5 |
| 20260830135604 | 10 | 257 | 0.0 | 0.0 | 0.00 | 0.00 | 0.00 | 86 | 1031.6 |
| 20260830135104 | 10 | 257 | 0.0 | 0.0 | 0.00 | 0.00 | 0.00 | 86 | 1031.6 |
| 20260830134604 | 10 | 257 | 0.0 | 1.6 | 0.00 | 0.00 | 0.00 | 86 | 1031.6 |
| 20260830134105 | 10 | 257 | 3.2 | 4.8 | 0.00 | 0.00 | 0.00 | 86 | 1031.6 |
| 20260830133604 | 10 | 257 | 1.6 | 4.8 | 0.00 | 0.00 | 0.00 | 86 | 1031.5 |
| 20260830133105 | 10 | 257 | 3.2 | 4.8 | 0.00 | 0.00 | 0.00 | 86 | 1031.5 |
| 20260830132604 | 10 | 257 | 1.6 | 4.8 | 0.00 | 0.00 | 0.00 | 86 | 1031.6 |
| 20260830132104 | 10 | 257 | 1.6 | 3.2 | 0.00 | 0.00 | 0.00 | 86 | 1031.6 |
| 20260830131604 | 10 | 257 | 0.0 | 1.6 | 0.00 | 0.00 | 0.00 | 85 | 1031.5 |
| 20260830131105 | 10 | 257 | 3.2 | 4.8 | 0.00 | 0.00 | 0.00 | 85 | 1031.5 |
| 20260830130604 | 10 | 257 | 3.2 | 4.8 | 0.00 | 0.00 | 0.00 | 85 | 1031.5 |
| 20260830130104 | 10 | 257 | 3.2 | 4.8 | 0.00 | 0.00 | 0.00 | 85 | 1031.6 |
| 20260830125604 | 10 | 257 | 4.8 | 4.8 | 0.00 | 0.00 | 0.00 | 84 | 1031.7 |
| 20260830125104 | 10 | 233 | 4.8 | 4.8 | 0.00 | 0.00 | 0.00 | 84 | 1031.7 |
| 20260830123604 | 11 | 145 | 4.8 | 8.0 | 0.00 | 0.00 | 0.00 | 83 | 1031.7 |
| 20260830123104 | 11 | 150 | 4.8 | 8.0 | 0.00 | 0.00 | 0.00 | 83 | 1031.6 |
| 20260830122604 | 11 | 235 | 3.2 | 4.8 | 0.00 | 0.00 | 0.00 | 83 | 1031.6 |
| 20260830122104 | 11 | 235 | 1.6 | 3.2 | 0.00 | 0.00 | 0.00 | 83 | 1031.4 |
| 20260830121603 | 11 | 235 | 3.2 | 4.8 | 0.00 | 0.00 | 0.00 | 83 | 1031.4 |
| 20260830121103 | 11 | 235 | 1.6 | 3.2 | 0.00 | 0.00 | 0.00 | 83 | 1031.4 |
| 20260830120602 | 11 | 235 | 1.6 | 4.8 | 0.00 | 0.00 | 0.00 | 83 | 1031.4 |
| 20260830115603 | 12 | 235 | 3.2 | 4.8 | 0.00 | 0.00 | 0.00 | 81 | 1031.4 |
| 20260830114603 | 12 | 235 | 3.2 | 4.8 | 0.00 | 0.00 | 0.00 | 80 | 1031.5 |
| 20260830114104 | 12 | 220 | 3.2 | 4.8 | 0.00 | 0.00 | 0.00 | 80 | 1031.4 |
| 20260830113603 | 12 | 220 | 3.2 | 4.8 | 0.00 | 0.00 | 0.00 | 80 | 1031.4 |
| 20260830113104 | 12 | 220 | 3.2 | 4.8 | 0.00 | 0.00 | 0.00 | 80 | 1031.4 |
| 20260830112603 | 12 | 220 | 3.2 | 4.8 | 0.00 | 0.00 | 0.00 | 80 | 1031.5 |
| 20260830111603 | 12 | 236 | 8.0 | 8.0 | 0.00 | 0.00 | 0.00 | 82 | 1031.4 |
| 20260830111103 | 12 | 224 | 3.2 | 4.8 | 0.00 | 0.00 | 0.00 | 82 | 1031.4 |
| 20260830110603 | 12 | 232 | 4.8 | 4.8 | 0.00 | 0.00 | 0.00 | 82 | 1031.5 |
| 20260830110103 | 12 | 276 | 3.2 | 4.8 | 0.00 | 0.00 | 0.00 | 82 | 1031.4 |
| 20260830104603 | 13 | 276 | 1.6 | 3.2 | 0.00 | 0.00 | 0.00 | 81 | 1031.1 |
| 20260830104104 | 13 | 276 | 3.2 | 4.8 | 0.00 | 0.00 | 0.00 | 81 | 1031.0 |
| 20260830103603 | 13 | 93 | 1.6 | 4.8 | 0.00 | 0.00 | 0.00 | 81 | 1031.1 |
| 20260830103104 | 13 | 93 | 1.6 | 3.2 | 0.00 | 0.00 | 0.00 | 80 | 1030.9 |
| 20260830102603 | 13 | 93 | 1.6 | 3.2 | 0.00 | 0.00 | 0.00 | 79 | 1031.0 |
| 20260830102103 | 13 | 93 | 1.6 | 3.2 | 0.00 | 0.00 | 0.00 | 79 | 1030.9 |
| 20260830101603 | 13 | 93 | 1.6 | 4.8 | 0.00 | 0.00 | 0.00 | 78 | 1030.8 |
| 20260830101103 | 13 | 93 | 1.6 | 4.8 | 0.00 | 0.00 | 0.00 | 77 | 1030.8 |
| 20260830100604 | 14 | 106 | 3.2 | 4.8 | 0.00 | 0.00 | 0.00 | 76 | 1030.8 |
| 20260830100104 | 14 | 126 | 6.4 | 9.7 | 0.00 | 0.00 | 0.00 | 75 | 1030.7 |
| 20260830095604 | 14 | 133 | 4.8 | 11.3 | 0.00 | 0.00 | 0.00 | 75 | 1030.7 |
| 20260830095103 | 15 | 135 | 4.8 | 9.7 | 0.00 | 0.00 | 0.00 | 74 | 1030.7 |
| 20260830094604 | 15 | 143 | 3.2 | 4.8 | 0.00 | 0.00 | 0.00 | 74 | 1030.7 |
| 20260830094104 | 15 | 143 | 3.2 | 4.8 | 0.00 | 0.00 | 0.00 | 73 | 1030.6 |
| 20260830093604 | 15 | 143 | 3.2 | 4.8 | 0.00 | 0.00 | 0.00 | 73 | 1030.6 |
| 20260830092603 | 15 | 143 | 3.2 | 9.7 | 0.00 | 0.00 | 0.00 | 73 | 1030.5 |
| 20260830092104 | 15 | 136 | 3.2 | 4.8 | 0.00 | 0.00 | 0.00 | 73 | 1030.6 |
| 20260830091604 | 15 | 138 | 3.2 | 9.7 | 0.00 | 0.00 | 0.00 | 73 | 1030.6 |
| 20260830091104 | 15 | 134 | 4.8 | 9.7 | 0.00 | 0.00 | 0.00 | 72 | 1030.6 |
| 20260830090604 | 16 | 142 | 4.8 | 9.7 | 0.00 | 0.00 | 0.00 | 72 | 1030.6 |
| 20260830090104 | 16 | 151 | 3.2 | 4.8 | 0.00 | 0.00 | 0.00 | 71 | 1030.5 |
| 20260830085604 | 16 | 151 | 1.6 | 3.2 | 0.00 | 0.00 | 0.00 | 71 | 1030.4 |
| 20260830085104 | 16 | 151 | 1.6 | 4.8 | 0.00 | 0.00 | 0.00 | 70 | 1030.3 |
| 20260830084604 | 16 | 151 | 1.6 | 3.2 | 0.00 | 0.00 | 0.00 | 69 | 1030.3 |
| 20260830084104 | 16 | 151 | 1.6 | 4.8 | 0.00 | 0.00 | 0.00 | 69 | 1030.2 |
| 20260830083604 | 16 | 151 | 3.2 | 4.8 | 0.00 | 0.00 | 0.00 | 68 | 1030.2 |
| 20260830083103 | 17 | 151 | 3.2 | 4.8 | 0.00 | 0.00 | 0.00 | 66 | 1030.1 |
| 20260830082603 | 17 | 151 | 3.2 | 4.8 | 0.00 | 0.00 | 0.00 | 65 | 1030.0 |
| 20260830082104 | 17 | 133 | 4.8 | 4.8 | 0.00 | 0.00 | 0.00 | 63 | 1030.0 |
| 20260830081104 | 17 | 126 | 3.2 | 9.7 | 0.00 | 0.00 | 0.00 | 59 | 1030.0 |
| 20260830080604 | 17 | 120 | 3.2 | 4.8 | 0.00 | 0.00 | 0.00 | 56 | 1029.8 |
| 20260830080104 | 18 | 120 | 3.2 | 4.8 | 0.00 | 0.00 | 0.00 | 55 | 1029.7 |
| 20260830075604 | 18 | 120 | 3.2 | 4.8 | 0.00 | 0.00 | 0.00 | 54 | 1029.6 |
| 20260830075104 | 18 | 120 | 3.2 | 4.8 | 0.00 | 0.00 | 0.00 | 54 | 1029.6 |
| 20260830074104 | 18 | 120 | 3.2 | 4.8 | 0.00 | 0.00 | 0.00 | 52 | 1029.5 |
| 20260830073603 | 18 | 120 | 3.2 | 4.8 | 0.00 | 0.00 | 0.00 | 52 | 1029.5 |
| 20260830073104 | 19 | 80 | 3.2 | 9.7 | 0.00 | 0.00 | 0.00 | 51 | 1029.4 |
| 20260830072604 | 19 | 83 | 6.4 | 14.5 | 0.00 | 0.00 | 0.00 | 50 | 1029.4 |
| 20260830072104 | 19 | 89 | 8.0 | 14.5 | 0.00 | 0.00 | 0.00 | 49 | 1029.3 |
| 20260830071604 | 19 | 89 | 6.4 | 12.9 | 0.00 | 0.00 | 0.00 | 48 | 1029.3 |
| 20260830071104 | 20 | 96 | 8.0 | 14.5 | 0.00 | 0.00 | 0.00 | 46 | 1029.2 |
| 20260830070603 | 20 | 92 | 6.4 | 12.9 | 0.00 | 0.00 | 0.00 | 47 | 1029.3 |
| 20260830070104 | 20 | 95 | 8.0 | 14.5 | 0.00 | 0.00 | 0.00 | 47 | 1029.2 |
| 20260830065604 | 20 | 78 | 8.0 | 16.1 | 0.00 | 0.00 | 0.00 | 46 | 1029.3 |
| 20260830065104 | 20 | 93 | 9.7 | 14.5 | 0.00 | 0.00 | 0.00 | 45 | 1029.3 |
| 20260830064604 | 20 | 93 | 9.7 | 19.3 | 0.00 | 0.00 | 0.00 | 46 | 1029.3 |
| 20260830064104 | 20 | 68 | 9.7 | 14.5 | 0.00 | 0.00 | 0.00 | 45 | 1029.3 |
| 20260830063104 | 20 | 97 | 8.0 | 14.5 | 0.00 | 0.00 | 0.00 | 45 | 1029.3 |
| 20260830062104 | 21 | 97 | 9.7 | 16.1 | 0.00 | 0.00 | 0.00 | 45 | 1029.2 |
| 20260830061105 | 21 | 90 | 11.3 | 19.3 | 0.00 | 0.00 | 0.00 | 45 | 1029.2 |
| 20260830060603 | 21 | 113 | 9.7 | 14.5 | 0.00 | 0.00 | 0.00 | 43 | 1029.2 |
| 20260830060105 | 21 | 86 | 9.7 | 16.1 | 0.00 | 0.00 | 0.00 | 44 | 1029.2 |
| 20260830055104 | 21 | 82 | 8.0 | 16.1 | 0.00 | 0.00 | 0.00 | 44 | 1029.3 |